Time;durP1;ratioP1;P1;durP2;ratioP2;P2;SDS_P1;SDS_P2;PMS_P1;PMS_P2;Temp;Humidity;BMP_temperature;BMP_pressure;BME280_temperature;BME280_humidity;BME280_pressure;Samples;Min_cycle;Max_cycle;Signal;HPM_P1;HPM_P2
2023/06/18 00:02:15;;;;;;;10.70;7.97;;;17.90;99.90;;;;;;4973367;28;20454;-73
2023/06/18 00:04:41;;;;;;;10.50;8.67;;;17.80;99.90;;;;;;4973525;28;20434;-73
2023/06/18 00:07:08;;;;;;;12.63;8.77;;;17.70;99.90;;;;;;4973405;28;20514;-73
2023/06/18 00:09:35;;;;;;;11.60;8.50;;;17.60;99.90;;;;;;4973322;28;20470;-73
2023/06/18 00:12:03;;;;;;;12.17;7.67;;;17.50;99.90;;;;;;4973334;28;20501;-73
2023/06/18 00:14:29;;;;;;;8.57;7.60;;;17.50;99.90;;;;;;4974000;28;20526;-73
2023/06/18 00:16:56;;;;;;;14.60;8.70;;;17.40;99.90;;;;;;4972676;28;20866;-73
2023/06/18 00:19:23;;;;;;;13.93;8.60;;;17.40;99.90;;;;;;4972634;28;20427;-73
2023/06/18 00:21:49;;;;;;;10.57;8.93;;;17.30;99.90;;;;;;4973240;28;20990;-73
2023/06/18 00:24:16;;;;;;;13.43;9.03;;;17.30;99.90;;;;;;4972795;28;20443;-73
2023/06/18 00:26:42;;;;;;;15.73;8.80;;;17.30;99.90;;;;;;4973627;28;20518;-73
2023/06/18 00:29:11;;;;;;;14.23;7.67;;;17.20;99.90;;;;;;4972663;28;20550;-73
2023/06/18 00:31:38;;;;;;;12.83;7.30;;;17.20;99.90;;;;;;4973116;28;20460;-73
2023/06/18 00:34:06;;;;;;;11.03;7.90;;;17.20;99.90;;;;;;4972748;28;20483;-73
2023/06/18 00:36:33;;;;;;;9.30;7.40;;;17.10;99.90;;;;;;4972549;28;20542;-73
2023/06/18 00:39:03;;;;;;;8.57;7.67;;;17.10;99.90;;;;;;4972010;28;20452;-73
2023/06/18 00:41:30;;;;;;;9.43;7.50;;;17.10;99.90;;;;;;4972975;28;20479;-73
2023/06/18 00:43:57;;;;;;;8.60;7.33;;;17.10;99.90;;;;;;4972882;28;20550;-73
2023/06/18 00:46:25;;;;;;;10.10;8.03;;;17.10;99.90;;;;;;4972755;28;20494;-73
2023/06/18 00:48:53;;;;;;;9.80;7.90;;;17.10;99.90;;;;;;4971710;28;20458;-73
2023/06/18 00:51:21;;;;;;;9.40;8.00;;;17.10;99.90;;;;;;4972705;28;20540;-73
2023/06/18 00:53:48;;;;;;;9.00;7.60;;;17.00;99.90;;;;;;4972554;28;20653;-73
2023/06/18 00:56:15;;;;;;;8.07;7.00;;;17.00;99.90;;;;;;4972662;28;20476;-73
2023/06/18 00:58:41;;;;;;;10.23;7.60;;;16.90;99.90;;;;;;4972713;28;20472;-73
2023/06/18 01:01:10;;;;;;;15.43;8.40;;;16.90;99.90;;;;;;4971982;28;20475;-73
2023/06/18 01:03:38;;;;;;;10.43;8.00;;;16.90;99.90;;;;;;4972197;28;20476;-73
2023/06/18 01:06:06;;;;;;;9.67;8.17;;;16.90;99.90;;;;;;4972668;28;20435;-73
2023/06/18 01:08:33;;;;;;;9.83;7.47;;;16.80;99.90;;;;;;4971851;28;20496;-73
2023/06/18 01:11:03;;;;;;;12.00;7.43;;;16.80;99.90;;;;;;4972282;28;20431;-73
2023/06/18 01:13:33;;;;;;;9.03;7.80;;;16.80;99.90;;;;;;4972247;28;20480;-73
2023/06/18 01:16:03;;;;;;;12.80;8.20;;;16.80;99.90;;;;;;4971213;28;20452;-73
2023/06/18 01:18:34;;;;;;;8.93;7.43;;;16.70;99.90;;;;;;4972281;28;20506;-73
2023/06/18 01:21:05;;;;;;;9.13;7.50;;;16.60;99.90;;;;;;4971840;28;20452;-73
2023/06/18 01:23:45;;;;;;;9.90;7.90;;;16.50;99.90;;;;;;4972153;28;20472;-73
2023/06/18 01:26:12;;;;;;;9.63;7.80;;;16.50;99.90;;;;;;4970124;28;20460;-73
2023/06/18 01:28:40;;;;;;;9.47;8.20;;;16.50;99.90;;;;;;4972323;28;20550;-73
2023/06/18 01:31:07;;;;;;;14.20;9.40;;;16.40;99.90;;;;;;4971456;28;20468;-73
2023/06/18 01:33:34;;;;;;;9.17;8.00;;;16.40;99.90;;;;;;4971753;28;20538;-73
2023/06/18 01:36:02;;;;;;;8.90;6.87;;;16.40;99.90;;;;;;4972022;28;20486;-72
2023/06/18 01:38:38;;;;;;;10.63;7.70;;;16.30;99.90;;;;;;4966352;28;20511;-73
2023/06/18 01:41:11;;;;;;;12.10;8.43;;;16.30;99.90;;;;;;4972020;28;20526;-73
2023/06/18 01:43:43;;;;;;;9.90;8.50;;;16.30;99.90;;;;;;4965541;28;20507;-73
2023/06/18 01:46:12;;;;;;;11.20;8.40;;;16.30;99.90;;;;;;4971048;28;20828;-73
2023/06/18 01:48:44;;;;;;;8.77;7.87;;;16.30;99.90;;;;;;4971434;28;20901;-73
2023/06/18 01:51:13;;;;;;;11.33;8.67;;;16.20;99.90;;;;;;4970492;28;20485;-73
2023/06/18 01:53:41;;;;;;;12.83;8.93;;;16.20;99.90;;;;;;4971713;28;20476;-73
2023/06/18 01:56:09;;;;;;;10.50;8.80;;;16.10;99.90;;;;;;4971201;28;20956;-73
2023/06/18 01:58:41;;;;;;;9.10;7.73;;;16.20;99.90;;;;;;4971219;28;20933;-73
2023/06/18 02:01:09;;;;;;;13.47;9.40;;;16.10;99.90;;;;;;4971027;28;20456;-73
2023/06/18 02:03:36;;;;;;;9.50;8.50;;;16.10;99.90;;;;;;4971034;28;20490;-73
2023/06/18 02:06:03;;;;;;;9.83;8.77;;;16.10;99.90;;;;;;4971479;28;20460;-73
2023/06/18 02:08:31;;;;;;;10.93;9.37;;;16.10;99.90;;;;;;4971351;28;21009;-73
2023/06/18 02:10:57;;;;;;;11.60;9.20;;;16.00;99.90;;;;;;4971254;28;20479;-73
2023/06/18 02:13:24;;;;;;;15.00;9.03;;;16.00;99.90;;;;;;4970332;28;20475;-73
2023/06/18 02:15:51;;;;;;;12.33;9.13;;;16.00;99.90;;;;;;4971009;28;20519;-73
2023/06/18 02:18:18;;;;;;;11.13;8.37;;;16.00;99.90;;;;;;4971239;28;20587;-73
2023/06/18 02:20:45;;;;;;;11.17;9.00;;;15.90;99.90;;;;;;4968023;28;20535;-73
2023/06/18 02:23:13;;;;;;;10.30;9.23;;;15.90;99.90;;;;;;4968515;28;20478;-73
2023/06/18 02:25:44;;;;;;;10.37;8.57;;;15.80;99.90;;;;;;4971336;28;20460;-73
2023/06/18 02:28:12;;;;;;;14.07;8.93;;;15.80;99.90;;;;;;4970591;28;20463;-73
2023/06/18 02:30:39;;;;;;;11.70;8.97;;;15.80;99.90;;;;;;4971219;28;20460;-72
2023/06/18 02:33:06;;;;;;;13.80;8.70;;;15.80;99.90;;;;;;4970756;28;21000;-73
2023/06/18 02:35:34;;;;;;;11.67;9.50;;;15.70;99.90;;;;;;4971344;28;20456;-73
2023/06/18 02:38:00;;;;;;;11.13;8.77;;;15.60;99.90;;;;;;4970637;28;20514;-73
2023/06/18 02:40:27;;;;;;;11.27;9.20;;;15.60;99.90;;;;;;4971145;28;20457;-73
2023/06/18 02:42:56;;;;;;;11.10;8.90;;;15.60;99.90;;;;;;4970742;28;20516;-73
2023/06/18 02:45:25;;;;;;;11.00;9.60;;;15.50;99.90;;;;;;4970656;28;20984;-73
2023/06/18 02:47:52;;;;;;;12.47;10.00;;;15.50;99.90;;;;;;4970653;28;20464;-73
2023/06/18 02:50:19;;;;;;;19.30;9.93;;;15.40;99.90;;;;;;4970912;28;20558;-73
2023/06/18 02:52:46;;;;;;;11.83;9.70;;;15.40;99.90;;;;;;4970378;28;20487;-73
2023/06/18 02:55:13;;;;;;;12.30;8.83;;;15.30;99.90;;;;;;4970605;28;20475;-73
2023/06/18 02:57:41;;;;;;;13.80;9.43;;;15.30;99.90;;;;;;4971104;28;20464;-73
2023/06/18 03:00:12;;;;;;;10.77;9.23;;;15.30;99.90;;;;;;4970548;28;20539;-73
2023/06/18 03:02:39;;;;;;;14.70;9.60;;;15.20;99.90;;;;;;4971257;28;20484;-73
2023/06/18 03:05:06;;;;;;;12.50;9.03;;;15.20;99.90;;;;;;4970793;28;20465;-73
2023/06/18 03:07:33;;;;;;;11.13;9.13;;;15.30;99.90;;;;;;4970850;28;20874;-73
2023/06/18 03:10:00;;;;;;;22.93;10.00;;;15.20;99.90;;;;;;4970560;28;20551;-73
2023/06/18 03:12:28;;;;;;;11.47;9.40;;;15.20;99.90;;;;;;4974355;28;20501;-73
2023/06/18 03:14:55;;;;;;;13.70;9.80;;;15.20;99.90;;;;;;4969789;28;20507;-73
2023/06/18 03:17:23;;;;;;;11.53;9.53;;;15.20;99.90;;;;;;4973790;28;20448;-73
2023/06/18 03:19:49;;;;;;;13.00;10.00;;;15.10;99.90;;;;;;4974126;28;20452;-73
2023/06/18 03:22:16;;;;;;;15.10;9.47;;;15.10;99.90;;;;;;4974135;28;20489;-73
2023/06/18 03:24:42;;;;;;;14.17;9.20;;;15.10;99.90;;;;;;4974591;28;20456;-73
2023/06/18 03:27:09;;;;;;;16.30;9.30;;;15.20;99.90;;;;;;4974122;28;20517;-73
2023/06/18 03:29:36;;;;;;;11.83;8.97;;;15.20;99.90;;;;;;4974241;28;20487;-73
2023/06/18 03:32:03;;;;;;;11.80;9.73;;;15.20;99.90;;;;;;4973965;28;20487;-73
2023/06/18 03:34:33;;;;;;;16.60;9.03;;;15.20;99.90;;;;;;4973793;28;20456;-73
2023/06/18 03:37:00;;;;;;;11.63;9.53;;;15.20;99.90;;;;;;4974085;28;20463;-73
2023/06/18 03:39:27;;;;;;;14.50;10.20;;;15.10;99.90;;;;;;4974320;28;20523;-73
2023/06/18 03:41:54;;;;;;;13.83;10.10;;;15.10;99.90;;;;;;4974048;28;20522;-73
2023/06/18 03:44:21;;;;;;;11.70;9.17;;;15.10;99.90;;;;;;4973717;28;20537;-73
2023/06/18 03:46:47;;;;;;;12.87;9.33;;;15.00;99.90;;;;;;4973884;28;20503;-73
2023/06/18 03:49:14;;;;;;;11.63;9.23;;;15.00;99.90;;;;;;4973084;28;20493;-73
2023/06/18 03:51:42;;;;;;;10.17;8.47;;;15.10;99.90;;;;;;4973401;28;20552;-72
2023/06/18 03:54:09;;;;;;;17.20;8.23;;;15.00;99.90;;;;;;4973705;28;20549;-73
2023/06/18 03:56:35;;;;;;;10.37;8.83;;;15.10;99.90;;;;;;4973880;28;20533;-73
2023/06/18 03:59:02;;;;;;;11.90;8.60;;;15.10;99.90;;;;;;4973963;28;20452;-73
2023/06/18 04:01:29;;;;;;;11.90;9.03;;;15.10;99.90;;;;;;4972797;28;20460;-73
2023/06/18 04:03:56;;;;;;;12.80;8.40;;;15.10;99.90;;;;;;4973417;28;20473;-73
2023/06/18 04:06:22;;;;;;;10.80;9.07;;;15.10;99.90;;;;;;4973662;28;20456;-73
2023/06/18 04:08:50;;;;;;;9.07;8.03;;;15.10;99.90;;;;;;4973795;28;20512;-73
2023/06/18 04:11:17;;;;;;;10.57;8.43;;;15.10;99.90;;;;;;4973544;28;20461;-73
2023/06/18 04:13:44;;;;;;;15.00;9.00;;;15.20;99.90;;;;;;4973423;28;20485;-73
2023/06/18 04:16:11;;;;;;;11.10;8.80;;;15.20;99.90;;;;;;4972575;28;20452;-73
2023/06/18 04:18:37;;;;;;;13.10;9.53;;;15.30;99.90;;;;;;4973786;28;20452;-73
2023/06/18 04:21:04;;;;;;;16.13;9.33;;;15.30;99.90;;;;;;4973070;28;20487;-73
2023/06/18 04:23:31;;;;;;;12.70;8.37;;;15.30;99.90;;;;;;4971829;28;20518;-73
2023/06/18 04:25:59;;;;;;;12.50;9.13;;;15.40;99.90;;;;;;4973202;28;20460;-73
2023/06/18 04:28:25;;;;;;;10.43;9.10;;;15.50;99.90;;;;;;4972855;28;20460;-73
2023/06/18 04:30:52;;;;;;;12.23;8.80;;;15.50;99.90;;;;;;4972705;28;20489;-73
2023/06/18 04:33:19;;;;;;;10.77;8.87;;;15.60;99.90;;;;;;4972868;28;20476;-73
2023/06/18 04:35:46;;;;;;;10.60;8.80;;;15.70;99.90;;;;;;4973309;28;20463;-73
2023/06/18 04:38:12;;;;;;;30.13;9.07;;;15.70;99.90;;;;;;4972384;28;20452;-73
2023/06/18 04:40:39;;;;;;;13.73;8.87;;;15.80;99.90;;;;;;4972657;28;20941;-72
2023/06/18 04:43:07;;;;;;;11.53;8.93;;;15.80;99.90;;;;;;4972220;28;20484;-73
2023/06/18 04:45:34;;;;;;;13.13;8.60;;;15.90;99.90;;;;;;4972738;28;20464;-73
2023/06/18 04:48:02;;;;;;;12.97;8.60;;;16.00;99.90;;;;;;4973155;28;20456;-73
2023/06/18 04:50:29;;;;;;;11.73;9.53;;;16.10;99.90;;;;;;4972703;28;20535;-74
2023/06/18 04:52:55;;;;;;;11.80;9.73;;;16.10;99.90;;;;;;4971994;28;21070;-74
2023/06/18 04:55:22;;;;;;;10.63;8.83;;;16.20;99.90;;;;;;4972266;28;20536;-73
2023/06/18 04:57:49;;;;;;;10.30;8.87;;;16.30;99.90;;;;;;4973088;28;20452;-74
2023/06/18 05:00:19;;;;;;;14.60;9.63;;;16.40;99.90;;;;;;4972436;28;20467;-73
2023/06/18 05:02:46;;;;;;;13.37;9.80;;;16.50;99.90;;;;;;4971762;28;20479;-73
2023/06/18 05:05:13;;;;;;;15.83;8.90;;;16.60;99.90;;;;;;4972340;28;20460;-73
2023/06/18 05:07:39;;;;;;;10.40;9.30;;;16.70;99.90;;;;;;4972519;28;20477;-73
2023/06/18 05:10:07;;;;;;;14.33;10.10;;;16.80;99.90;;;;;;4972060;28;20912;-73
2023/06/18 05:12:34;;;;;;;12.10;9.53;;;16.90;99.90;;;;;;4971585;28;20476;-73
2023/06/18 05:15:00;;;;;;;18.03;8.97;;;17.00;99.90;;;;;;4972652;28;20464;-73
2023/06/18 05:17:28;;;;;;;13.97;9.83;;;17.10;99.90;;;;;;4971737;28;20514;-71
2023/06/18 05:19:55;;;;;;;13.47;10.07;;;17.20;99.90;;;;;;4971756;28;20507;-71
2023/06/18 05:22:21;;;;;;;12.73;10.47;;;17.30;99.90;;;;;;4971964;28;20483;-71
2023/06/18 05:24:48;;;;;;;15.97;9.80;;;17.40;99.90;;;;;;4971919;28;20464;-71
2023/06/18 05:27:15;;;;;;;17.23;10.53;;;17.40;99.90;;;;;;4971663;28;20976;-71
2023/06/18 05:29:41;;;;;;;14.50;9.60;;;17.50;99.90;;;;;;4971982;28;20488;-71
2023/06/18 05:32:09;;;;;;;11.43;9.70;;;17.50;99.90;;;;;;4971498;28;20456;-71
2023/06/18 05:34:37;;;;;;;12.10;9.93;;;17.60;99.90;;;;;;4971511;28;20535;-71
2023/06/18 05:37:04;;;;;;;14.37;10.47;;;17.60;99.90;;;;;;4972369;28;20452;-72
2023/06/18 05:39:31;;;;;;;14.17;9.93;;;17.80;99.90;;;;;;4972068;28;20435;-71
2023/06/18 05:41:57;;;;;;;11.60;8.47;;;17.90;99.90;;;;;;4971330;28;20539;-72
2023/06/18 05:44:24;;;;;;;10.60;9.40;;;17.90;99.90;;;;;;4971533;28;20427;-72
2023/06/18 05:46:51;;;;;;;12.73;9.07;;;18.10;99.90;;;;;;4971709;28;20452;-71
2023/06/18 05:49:17;;;;;;;13.03;9.40;;;18.40;99.90;;;;;;4971781;28;20969;-72
2023/06/18 05:51:46;;;;;;;16.57;11.17;;;18.50;99.90;;;;;;4971291;28;20433;-72
2023/06/18 05:54:12;;;;;;;11.90;9.20;;;18.60;99.90;;;;;;4971868;28;20472;-71
2023/06/18 05:56:39;;;;;;;12.17;9.60;;;18.80;99.90;;;;;;4971405;28;20539;-72
2023/06/18 05:59:06;;;;;;;14.37;10.60;;;18.80;99.90;;;;;;4971223;28;20464;-72
2023/06/18 06:01:33;;;;;;;9.97;8.93;;;18.90;99.90;;;;;;4970776;28;20859;-72
2023/06/18 06:03:59;;;;;;;13.00;9.90;;;19.10;99.90;;;;;;4971526;28;20546;-72
2023/06/18 06:06:26;;;;;;;16.00;10.00;;;19.30;99.90;;;;;;4970921;28;20431;-72
2023/06/18 06:08:55;;;;;;;13.27;9.80;;;19.40;99.90;;;;;;4971200;28;20498;-72
2023/06/18 06:11:22;;;;;;;14.53;9.47;;;19.40;99.90;;;;;;4969525;28;20462;-72
2023/06/18 06:13:49;;;;;;;14.07;9.70;;;19.40;99.90;;;;;;4971295;28;20454;-72
2023/06/18 06:16:16;;;;;;;10.77;9.50;;;19.40;99.90;;;;;;4970092;28;20940;-72
2023/06/18 06:18:42;;;;;;;11.57;9.70;;;19.50;99.90;;;;;;4971421;28;20430;-72
2023/06/18 06:21:09;;;;;;;16.57;10.60;;;19.60;99.90;;;;;;4971094;28;20456;-72
2023/06/18 06:23:36;;;;;;;12.60;10.30;;;19.70;99.90;;;;;;4970526;28;20899;-72
2023/06/18 06:26:04;;;;;;;12.17;9.40;;;19.80;99.90;;;;;;4971330;28;20535;-72
2023/06/18 06:28:30;;;;;;;10.40;9.33;;;19.90;99.90;;;;;;4970830;28;20431;-72
2023/06/18 06:30:57;;;;;;;11.00;9.90;;;20.10;99.90;;;;;;4970871;28;20500;-72
2023/06/18 06:33:23;;;;;;;12.83;8.80;;;20.40;99.90;;;;;;4970568;28;20505;-72
2023/06/18 06:35:51;;;;;;;12.50;9.70;;;20.60;99.90;;;;;;4971237;28;20427;-72
2023/06/18 06:38:18;;;;;;;10.70;9.60;;;20.80;99.90;;;;;;4969882;28;20435;-72
2023/06/18 06:40:44;;;;;;;16.97;9.70;;;20.90;99.90;;;;;;4970887;28;20460;-72
2023/06/18 06:43:12;;;;;;;11.50;9.63;;;21.10;99.90;;;;;;4970477;28;20469;-72
2023/06/18 06:45:39;;;;;;;12.60;10.37;;;21.30;99.90;;;;;;4971697;28;20452;-72
2023/06/18 06:48:06;;;;;;;11.77;9.37;;;21.40;99.90;;;;;;4970414;28;20869;-69
2023/06/18 06:50:32;;;;;;;11.93;8.80;;;21.50;99.90;;;;;;4974783;28;20501;-69
2023/06/18 06:52:59;;;;;;;10.53;9.20;;;21.60;99.90;;;;;;4974082;28;20984;-74
2023/06/18 06:55:25;;;;;;;11.67;9.47;;;21.80;99.90;;;;;;4974014;28;20465;-72
2023/06/18 06:57:52;;;;;;;11.70;9.70;;;22.00;99.90;;;;;;4974844;28;20460;-72
2023/06/18 07:00:20;;;;;;;10.17;8.20;;;22.20;99.90;;;;;;4974506;28;20478;-73
2023/06/18 07:02:47;;;;;;;11.80;9.17;;;22.30;99.90;;;;;;4974226;28;20833;-73
2023/06/18 07:05:14;;;;;;;10.87;9.07;;;22.50;99.90;;;;;;4974182;28;20435;-73
2023/06/18 07:07:40;;;;;;;11.10;9.40;;;22.70;99.90;;;;;;4974225;28;20464;-73
2023/06/18 07:10:08;;;;;;;11.00;9.83;;;22.80;99.90;;;;;;4974489;28;20519;-73
2023/06/18 07:12:35;;;;;;;10.40;9.40;;;23.10;99.90;;;;;;4974004;28;20479;-72
2023/06/18 07:15:01;;;;;;;13.10;9.43;;;23.20;99.90;;;;;;4973612;28;20463;-74
2023/06/18 07:17:29;;;;;;;14.53;9.07;;;23.30;99.90;;;;;;4974004;28;20518;-72
2023/06/18 07:19:56;;;;;;;11.73;9.40;;;23.30;99.90;;;;;;4972577;28;22230;-73
2023/06/18 07:22:22;;;;;;;9.93;8.93;;;23.40;99.90;;;;;;4971018;28;21012;-74
2023/06/18 07:24:49;;;;;;;13.00;9.37;;;23.50;99.90;;;;;;4974629;28;20485;-73
2023/06/18 07:27:16;;;;;;;13.07;8.90;;;23.80;99.90;;;;;;4974091;28;20459;-72
2023/06/18 07:29:42;;;;;;;10.20;9.00;;;24.00;99.90;;;;;;4973746;28;20904;-73
2023/06/18 07:32:09;;;;;;;10.77;8.47;;;24.20;99.90;;;;;;4973747;28;20514;-73
2023/06/18 07:34:37;;;;;;;9.87;7.70;;;24.20;99.90;;;;;;4972968;28;20507;-73
2023/06/18 07:37:04;;;;;;;9.57;8.27;;;24.40;99.90;;;;;;4945483;28;20478;-73
2023/06/18 07:39:31;;;;;;;11.03;9.80;;;24.50;99.90;;;;;;4982042;28;20502;-73
2023/06/18 07:41:57;;;;;;;13.13;8.13;;;24.60;99.90;;;;;;4964757;28;20466;-72
2023/06/18 07:44:25;;;;;;;15.20;8.93;;;24.70;99.90;;;;;;4973459;28;20456;-72
2023/06/18 07:46:51;;;;;;;11.77;8.63;;;24.80;99.90;;;;;;4972261;28;20452;-72
2023/06/18 07:49:20;;;;;;;9.07;8.17;;;24.90;99.90;;;;;;4973169;28;20456;-72
2023/06/18 07:51:49;;;;;;;11.13;9.53;;;25.10;99.90;;;;;;4969604;28;20499;-73
2023/06/18 07:54:16;;;;;;;10.47;9.30;;;25.10;99.90;;;;;;4973224;28;20902;-73
2023/06/18 07:56:42;;;;;;;10.43;9.17;;;25.10;99.90;;;;;;4972762;28;20451;-73
2023/06/18 07:59:10;;;;;;;10.33;9.23;;;25.20;99.90;;;;;;4965429;28;20456;-74
2023/06/18 08:01:36;;;;;;;10.70;9.20;;;25.30;99.90;;;;;;4972553;28;20456;-74
2023/06/18 08:04:03;;;;;;;10.40;8.80;;;25.40;99.90;;;;;;4973137;28;20476;-74
2023/06/18 08:06:30;;;;;;;10.23;8.90;;;25.50;99.90;;;;;;4973012;28;20448;-74
2023/06/18 08:08:58;;;;;;;10.70;9.60;;;25.60;99.90;;;;;;4972789;28;20495;-72
2023/06/18 08:11:25;;;;;;;10.10;9.03;;;25.80;99.90;;;;;;4972862;28;20487;-74
2023/06/18 08:13:52;;;;;;;10.80;9.13;;;25.80;99.90;;;;;;4973094;28;20475;-75
2023/06/18 08:16:19;;;;;;;9.87;8.80;;;25.80;99.90;;;;;;4973373;28;20461;-74
2023/06/18 08:18:45;;;;;;;11.10;8.93;;;25.70;99.90;;;;;;4972191;28;20519;-74
2023/06/18 08:21:12;;;;;;;12.20;8.43;;;25.70;99.90;;;;;;4965983;28;20464;-74
2023/06/18 08:23:38;;;;;;;11.33;9.00;;;25.70;99.90;;;;;;4972159;28;20852;-75
2023/06/18 08:26:06;;;;;;;10.57;9.47;;;25.70;99.90;;;;;;4972337;28;20977;-74
2023/06/18 08:28:33;;;;;;;10.57;9.47;;;25.90;99.90;;;;;;4971012;28;20540;-74
2023/06/18 08:31:00;;;;;;;10.40;8.70;;;25.90;99.90;;;;;;4972052;28;20546;-74
2023/06/18 08:33:26;;;;;;;12.07;9.27;;;26.00;99.90;;;;;;4971071;28;20534;-74
2023/06/18 08:35:53;;;;;;;9.23;8.33;;;26.30;99.90;;;;;;4972658;28;20950;-74
2023/06/18 08:38:20;;;;;;;12.67;9.37;;;26.60;99.90;;;;;;4972300;28;20460;-74
2023/06/18 08:40:51;;;;;;;11.90;9.10;;;26.70;99.90;;;;;;4972265;28;21031;-74
2023/06/18 08:43:22;;;;;;;10.40;9.00;;;26.60;99.90;;;;;;4968356;28;20479;-73
2023/06/18 08:45:52;;;;;;;11.00;9.50;;;26.70;99.90;;;;;;4971827;28;20456;-73
2023/06/18 08:48:24;;;;;;;10.53;9.43;;;26.60;99.90;;;;;;4968837;28;20544;-73
2023/06/18 08:50:58;;;;;;;11.90;8.93;;;26.50;99.90;;;;;;4972381;28;20492;-72
2023/06/18 08:53:36;;;;;;;10.93;8.70;;;26.80;99.90;;;;;;4971960;28;21277;-70
2023/06/18 08:56:03;;;;;;;11.80;9.10;;;27.00;99.90;;;;;;4972537;28;20540;-71
2023/06/18 08:58:39;;;;;;;11.90;8.67;;;27.10;99.90;;;;;;4972257;28;20472;-72
2023/06/18 09:01:07;;;;;;;12.70;8.70;;;26.80;99.90;;;;;;4969006;28;20562;-72
2023/06/18 09:03:35;;;;;;;10.67;8.40;;;26.60;99.90;;;;;;4971491;28;20479;-71
2023/06/18 09:06:03;;;;;;;10.20;8.20;;;26.50;99.90;;;;;;4965031;28;20463;-71
2023/06/18 09:08:31;;;;;;;9.03;8.13;;;26.80;99.90;;;;;;4969333;28;20917;-72
2023/06/18 09:10:58;;;;;;;12.50;9.07;;;27.00;99.90;;;;;;4970088;28;21070;-72
2023/06/18 09:13:25;;;;;;;11.43;8.70;;;27.00;99.90;;;;;;4970252;28;20538;-72
2023/06/18 09:15:53;;;;;;;11.00;8.77;;;27.00;99.90;;;;;;4970663;28;20898;-72
2023/06/18 09:18:21;;;;;;;14.57;9.20;;;27.00;99.90;;;;;;4971810;28;20530;-72
2023/06/18 09:20:48;;;;;;;10.07;7.83;;;27.00;99.90;;;;;;4971708;28;20503;-71
2023/06/18 09:23:15;;;;;;;13.17;8.13;;;27.10;99.90;;;;;;4971338;28;20468;-73
2023/06/18 09:25:42;;;;;;;9.70;7.90;;;27.20;99.90;;;;;;4971116;28;20459;-73
2023/06/18 09:28:08;;;;;;;9.80;8.40;;;27.30;99.90;;;;;;4972279;28;20463;-73
2023/06/18 09:30:35;;;;;;;12.50;8.60;;;27.30;99.90;;;;;;4971503;28;20452;-73
2023/06/18 09:33:03;;;;;;;12.03;9.17;;;27.20;99.90;;;;;;4971908;28;20879;-73
2023/06/18 09:35:31;;;;;;;9.40;8.50;;;27.30;99.90;;;;;;4971629;28;20828;-74
2023/06/18 09:38:08;;;;;;;12.10;8.50;;;27.60;99.90;;;;;;4971411;28;20456;-73
2023/06/18 09:40:35;;;;;;;8.93;8.07;;;28.00;99.90;;;;;;4971525;28;20883;-72
2023/06/18 09:43:03;;;;;;;10.70;8.80;;;28.10;99.90;;;;;;4971058;28;20530;-73
2023/06/18 09:45:30;;;;;;;9.57;7.53;;;28.40;99.90;;;;;;4968845;28;20522;-73
2023/06/18 09:47:57;;;;;;;10.13;7.50;;;28.40;99.90;;;;;;4971840;28;20535;-73
2023/06/18 09:50:27;;;;;;;9.70;7.70;;;28.30;99.90;;;;;;4971286;28;20452;-73
2023/06/18 09:52:54;;;;;;;8.67;7.43;;;28.40;99.90;;;;;;4970456;28;20996;-73
2023/06/18 09:55:28;;;;;;;14.60;7.90;;;28.60;99.90;;;;;;4971255;28;20464;-73
2023/06/18 09:57:55;;;;;;;7.73;7.03;;;28.80;99.90;;;;;;4971275;28;20964;-73
2023/06/18 10:00:23;;;;;;;8.03;7.30;;;28.90;98.40;;;;;;4970587;28;20452;-73
2023/06/18 10:02:49;;;;;;;14.30;7.17;;;28.80;97.60;;;;;;4971437;28;20538;-73
2023/06/18 10:05:16;;;;;;;8.03;7.23;;;28.70;96.70;;;;;;4966584;28;20460;-73
2023/06/18 10:07:46;;;;;;;11.60;7.43;;;28.70;96.20;;;;;;4971610;28;20464;-73
2023/06/18 10:10:14;;;;;;;8.97;8.10;;;28.80;97.20;;;;;;4967869;28;20530;-74
2023/06/18 10:12:42;;;;;;;11.80;6.17;;;28.70;96.90;;;;;;4969564;28;20491;-73
2023/06/18 10:15:11;;;;;;;9.50;6.80;;;28.80;92.00;;;;;;4965359;28;20464;-73
2023/06/18 10:17:44;;;;;;;8.30;6.57;;;28.70;93.50;;;;;;4970490;28;20463;-73
2023/06/18 10:20:13;;;;;;;9.63;6.70;;;28.90;93.30;;;;;;4971539;28;20489;-73
2023/06/18 10:22:45;;;;;;;7.40;6.10;;;28.80;91.30;;;;;;4970255;28;20891;-73
2023/06/18 10:25:12;;;;;;;7.00;6.40;;;28.70;92.60;;;;;;4971305;28;20450;-72
2023/06/18 10:27:39;;;;;;;7.60;6.80;;;29.00;94.00;;;;;;4970476;28;20452;-72
2023/06/18 10:30:07;;;;;;;7.87;6.77;;;29.00;92.70;;;;;;4970275;28;20503;-73
2023/06/18 10:32:36;;;;;;;7.70;7.00;;;29.10;92.20;;;;;;4969279;28;20566;-73
2023/06/18 10:35:05;;;;;;;7.10;6.40;;;29.40;93.10;;;;;;4971136;28;20550;-73
2023/06/18 10:37:34;;;;;;;7.00;6.30;;;29.80;92.90;;;;;;4970097;28;20968;-73
2023/06/18 10:40:02;;;;;;;11.17;6.80;;;29.90;91.60;;;;;;4969619;28;20598;-74
2023/06/18 10:42:31;;;;;;;9.13;7.67;;;29.90;91.30;;;;;;4970231;28;20559;-75
2023/06/18 10:45:00;;;;;;;8.43;6.47;;;29.80;91.60;;;;;;4971222;28;20687;-75
2023/06/18 10:47:28;;;;;;;8.30;7.07;;;29.70;91.10;;;;;;4969984;28;20460;-75
2023/06/18 10:50:16;;;;;;;7.60;6.90;;;29.70;92.20;;;;;;4970780;28;20460;-74
2023/06/18 10:52:44;;;;;;;8.40;6.70;;;29.90;91.00;;;;;;4969541;28;20562;-73
2023/06/18 10:55:14;;;;;;;8.17;6.97;;;30.10;92.00;;;;;;4969226;28;20460;-75
2023/06/18 10:57:43;;;;;;;7.70;6.90;;;30.10;90.70;;;;;;4969278;28;20457;-75
2023/06/18 11:00:21;;;;;;;8.77;7.20;;;29.90;90.60;;;;;;4970227;28;20464;-75
2023/06/18 11:02:57;;;;;;;7.60;6.90;;;30.00;90.60;;;;;;4968991;28;22069;-75
2023/06/18 11:05:43;;;;;;;10.80;7.50;;;29.90;90.40;;;;;;4970184;28;20526;-74
2023/06/18 11:08:14;;;;;;;7.90;7.10;;;29.60;90.20;;;;;;4968341;28;20452;-75
2023/06/18 11:10:45;;;;;;;12.50;8.20;;;29.70;90.10;;;;;;4970408;28;20448;-75
2023/06/18 11:13:12;;;;;;;7.67;6.87;;;29.90;90.70;;;;;;4968756;28;20496;-75
2023/06/18 11:15:53;;;;;;;8.67;7.60;;;30.10;90.20;;;;;;4970326;28;20948;-73
2023/06/18 11:18:22;;;;;;;8.60;6.80;;;30.30;90.30;;;;;;4970456;28;20452;-74
2023/06/18 11:20:49;;;;;;;7.70;6.90;;;30.30;89.20;;;;;;4969761;28;20550;-75
2023/06/18 11:23:17;;;;;;;15.60;8.83;;;30.30;89.20;;;;;;4969599;28;20471;-74
2023/06/18 11:25:46;;;;;;;8.53;7.63;;;30.20;89.80;;;;;;4970315;28;20459;-74
2023/06/18 11:28:14;;;;;;;8.07;7.20;;;30.40;89.70;;;;;;4970258;28;20900;-75
2023/06/18 11:30:46;;;;;;;8.67;6.47;;;30.60;88.40;;;;;;4970291;28;20449;-75
2023/06/18 11:33:13;;;;;;;11.73;7.40;;;30.90;88.50;;;;;;4973409;28;20508;-74
2023/06/18 11:35:40;;;;;;;7.77;7.00;;;31.00;87.90;;;;;;4973967;28;20483;-74
2023/06/18 11:38:06;;;;;;;9.20;7.30;;;30.50;90.20;;;;;;4971747;28;20451;-75
2023/06/18 11:40:33;;;;;;;8.17;7.37;;;30.60;89.00;;;;;;4974010;28;20209;-75
2023/06/18 11:43:01;;;;;;;7.73;7.00;;;30.40;89.30;;;;;;4972477;28;20495;-75
2023/06/18 11:45:28;;;;;;;7.53;6.80;;;30.30;90.00;;;;;;4972208;28;20899;-75
2023/06/18 11:47:55;;;;;;;7.70;7.00;;;30.30;89.00;;;;;;4973358;28;20463;-74
2023/06/18 11:50:26;;;;;;;12.37;6.90;;;30.40;89.30;;;;;;4973402;28;20455;-75
2023/06/18 11:52:53;;;;;;;16.10;7.27;;;30.50;87.70;;;;;;4972584;28;20492;-75
2023/06/18 11:55:21;;;;;;;7.47;6.70;;;30.80;89.60;;;;;;4973067;28;20889;-75
2023/06/18 11:57:47;;;;;;;11.50;6.73;;;31.20;87.50;;;;;;4972863;28;20455;-75
2023/06/18 12:00:16;;;;;;;7.47;6.77;;;31.40;85.40;;;;;;4972943;28;20952;-75
2023/06/18 12:02:43;;;;;;;7.50;6.77;;;31.60;87.80;;;;;;4972423;28;20995;-75
2023/06/18 12:05:10;;;;;;;10.40;7.23;;;31.70;86.50;;;;;;4972624;28;20507;-74
2023/06/18 12:07:39;;;;;;;15.50;8.23;;;31.60;85.40;;;;;;4973003;28;20472;-74
2023/06/18 12:10:09;;;;;;;9.73;7.20;;;31.50;86.50;;;;;;4970743;28;20456;-74
2023/06/18 12:12:41;;;;;;;7.50;6.60;;;31.50;85.50;;;;;;4971955;28;21004;-74
2023/06/18 12:15:19;;;;;;;8.90;7.53;;;31.50;85.60;;;;;;4970867;28;20452;-74
2023/06/18 12:17:55;;;;;;;8.83;7.93;;;31.50;86.10;;;;;;4971668;28;20547;-75
2023/06/18 12:20:22;;;;;;;9.23;6.97;;;31.30;84.50;;;;;;4972629;28;20507;-76
2023/06/18 12:22:49;;;;;;;10.20;8.23;;;31.10;84.70;;;;;;4971959;28;20471;-75
2023/06/18 12:25:17;;;;;;;18.37;15.40;;;31.20;87.00;;;;;;4971939;28;20460;-74
2023/06/18 12:27:45;;;;;;;13.50;11.43;;;31.30;86.70;;;;;;4972977;28;20472;-74
2023/06/18 12:30:13;;;;;;;9.80;8.13;;;31.60;86.70;;;;;;4973308;28;20464;-75
2023/06/18 12:32:41;;;;;;;10.93;9.03;;;31.80;85.70;;;;;;4971339;28;20488;-74
2023/06/18 12:35:13;;;;;;;7.33;6.63;;;32.00;85.80;;;;;;4972349;28;20827;-75
2023/06/18 12:37:42;;;;;;;8.63;6.83;;;32.10;84.40;;;;;;4971121;28;20452;-75
2023/06/18 12:40:11;;;;;;;10.73;7.60;;;32.00;82.10;;;;;;4972737;28;20459;-74
2023/06/18 12:42:38;;;;;;;8.35;6.03;;;31.90;84.00;;;;;;4968301;28;20446;-75